createdAt,value
2022-08-21T00:00:24.269Z,2.13
2022-08-21T00:02:55.184Z,4.20
2022-08-21T00:05:23.097Z,2.08
2022-08-21T00:07:49.942Z,3.20
2022-08-21T00:10:25.737Z,2.97
2022-08-21T00:12:52.528Z,2.30
2022-08-21T00:15:23.666Z,4.97
2022-08-21T00:17:50.258Z,3.47
2022-08-21T00:20:18.142Z,2.13
2022-08-21T00:22:46.931Z,2.50
2022-08-21T00:25:15.181Z,2.10
2022-08-21T00:27:47.420Z,3.40
2022-08-21T00:30:17.726Z,3.25
2022-08-21T00:32:51.060Z,2.22
2022-08-21T00:35:20.570Z,4.22
2022-08-21T00:37:47.086Z,2.47
2022-08-21T00:40:17.669Z,1.92
2022-08-21T00:42:44.863Z,3.45
2022-08-21T00:45:20.529Z,3.35
2022-08-21T00:47:47.020Z,1.80
2022-08-21T00:50:21.658Z,2.00
2022-08-21T00:52:50.556Z,5.03
2022-08-21T00:55:17.672Z,2.47
2022-08-21T00:57:50.504Z,1.50
2022-08-21T01:00:22.300Z,1.60
2022-08-21T01:02:48.774Z,1.50
2022-08-21T01:05:15.722Z,1.30
2022-08-21T01:07:43.002Z,1.58
2022-08-21T01:10:20.542Z,2.95
2022-08-21T01:12:52.749Z,1.35
2022-08-21T01:15:22.278Z,2.38
2022-08-21T01:17:53.096Z,1.20
2022-08-21T01:20:19.934Z,2.67
2022-08-21T01:22:46.711Z,1.30
2022-08-21T01:25:22.598Z,2.42
2022-08-21T01:27:49.420Z,3.03
2022-08-21T01:30:22.910Z,1.30
2022-08-21T01:32:50.386Z,1.95
2022-08-21T01:35:18.445Z,2.67
2022-08-21T01:37:45.146Z,1.13
2022-08-21T01:40:12.772Z,1.23
2022-08-21T01:42:39.867Z,0.73
2022-08-21T01:45:08.272Z,0.70
2022-08-21T01:47:35.873Z,1.27
2022-08-21T01:50:05.280Z,1.08
2022-08-21T01:52:31.983Z,1.83
2022-08-21T01:54:58.532Z,1.98
2022-08-21T01:57:26.083Z,1.90
2022-08-21T01:59:53.731Z,2.78
2022-08-21T02:02:20.354Z,2.65
2022-08-21T02:04:46.824Z,2.17
2022-08-21T02:07:13.323Z,2.88
2022-08-21T02:09:40.263Z,2.17
2022-08-21T02:12:07.018Z,1.88
2022-08-21T02:14:34.494Z,2.53
2022-08-21T02:17:08.723Z,2.28
2022-08-21T02:19:40.109Z,2.55
2022-08-21T02:22:10.647Z,2.00
2022-08-21T02:24:50.172Z,2.20
2022-08-21T02:27:26.116Z,1.23
2022-08-21T02:29:54.034Z,1.05
2022-08-21T02:32:22.305Z,2.67
2022-08-21T02:34:49.460Z,1.00
2022-08-21T02:37:15.889Z,1.08
2022-08-21T02:39:42.327Z,2.45
2022-08-21T02:42:08.840Z,1.77
2022-08-21T02:44:35.343Z,1.10
2022-08-21T02:47:01.774Z,2.10
2022-08-21T02:49:28.174Z,1.20
2022-08-21T02:51:54.715Z,1.95
2022-08-21T02:54:22.202Z,4.40
2022-08-21T02:56:48.654Z,2.88
2022-08-21T02:59:15.068Z,1.52
2022-08-21T03:01:41.676Z,1.25
2022-08-21T03:04:08.103Z,1.35
2022-08-21T03:06:34.774Z,1.10
2022-08-21T03:09:01.368Z,1.30
2022-08-21T03:11:27.877Z,1.30
2022-08-21T03:13:54.323Z,2.30
2022-08-21T03:16:21.606Z,1.23
2022-08-21T03:18:48.320Z,1.10
2022-08-21T03:21:14.848Z,2.25
2022-08-21T03:23:42.969Z,3.38
2022-08-21T03:26:11.702Z,1.45
2022-08-21T03:28:38.339Z,1.92
2022-08-21T03:31:06.365Z,1.10
2022-08-21T03:33:33.945Z,1.30
2022-08-21T03:36:07.865Z,2.90
2022-08-21T03:38:35.909Z,1.70
2022-08-21T03:41:03.851Z,1.23
2022-08-21T03:43:32.134Z,2.13
2022-08-21T03:45:59.862Z,1.73
2022-08-21T03:48:26.292Z,1.33
2022-08-21T03:50:53.839Z,1.73
2022-08-21T03:53:20.298Z,1.85
2022-08-21T03:55:51.779Z,1.73
2022-08-21T03:58:22.114Z,1.50
2022-08-21T04:00:51.268Z,4.40
2022-08-21T04:03:17.988Z,1.27
2022-08-21T04:05:46.489Z,1.15
2022-08-21T04:08:14.563Z,1.40
2022-08-21T04:10:42.191Z,1.30
2022-08-21T04:13:09.147Z,1.42
2022-08-21T04:15:36.173Z,0.88
2022-08-21T04:18:03.624Z,1.10
2022-08-21T04:20:30.129Z,1.77
2022-08-21T04:22:57.381Z,2.45
2022-08-21T04:25:26.311Z,1.00
2022-08-21T04:27:53.270Z,1.45
2022-08-21T04:30:20.411Z,1.25
2022-08-21T04:32:49.943Z,1.00
2022-08-21T04:35:18.870Z,0.90
2022-08-21T04:37:45.400Z,1.70
2022-08-21T04:40:13.590Z,1.55
2022-08-21T04:42:54.111Z,1.58
2022-08-21T04:45:26.177Z,1.52
2022-08-21T04:47:54.569Z,1.77
2022-08-21T04:50:32.558Z,2.78
2022-08-21T04:52:59.676Z,1.65
2022-08-21T04:55:29.503Z,1.80
2022-08-21T04:57:57.721Z,1.40
2022-08-21T05:00:25.645Z,1.33
2022-08-21T05:02:57.346Z,2.13
2022-08-21T05:05:25.020Z,2.65
2022-08-21T05:07:53.134Z,3.80
2022-08-21T05:10:20.554Z,2.47
2022-08-21T05:12:47.296Z,2.45
2022-08-21T05:15:14.054Z,2.30
2022-08-21T05:17:52.553Z,2.88
2022-08-21T05:20:27.463Z,5.30
2022-08-21T05:22:53.975Z,2.15
2022-08-21T05:25:22.345Z,1.98
2022-08-21T05:27:51.977Z,1.63
2022-08-21T05:30:19.959Z,2.00
2022-08-21T05:32:47.013Z,2.47
2022-08-21T05:35:13.446Z,2.17
2022-08-21T05:37:40.291Z,2.72
2022-08-21T05:40:22.412Z,2.15
2022-08-21T05:42:54.260Z,2.30
2022-08-21T05:45:41.620Z,2.17
2022-08-21T05:48:18.086Z,2.50
2022-08-21T05:50:45.979Z,4.33
2022-08-21T05:53:13.552Z,2.72
2022-08-21T05:55:45.284Z,3.05
2022-08-21T05:58:18.476Z,2.28
2022-08-21T06:00:48.230Z,2.75
2022-08-21T06:03:24.746Z,3.63
2022-08-21T06:08:18.411Z,2.72
2022-08-21T06:10:45.993Z,3.83
2022-08-21T06:13:13.134Z,3.03
2022-08-21T06:15:39.676Z,3.38
2022-08-21T06:18:06.763Z,5.35
2022-08-21T06:20:33.833Z,3.58
2022-08-21T06:23:00.461Z,3.70
2022-08-21T06:25:27.260Z,3.97
2022-08-21T06:27:53.792Z,4.13
2022-08-21T06:30:20.803Z,3.65
2022-08-21T06:32:47.235Z,6.68
2022-08-21T06:35:13.705Z,4.75
2022-08-21T06:37:40.123Z,5.57
2022-08-21T06:40:12.556Z,4.00
2022-08-21T06:42:39.750Z,4.05
2022-08-21T06:45:08.192Z,4.13
2022-08-21T06:47:34.619Z,4.55
2022-08-21T06:50:01.198Z,4.63
2022-08-21T06:52:27.607Z,3.38
2022-08-21T06:54:54.011Z,4.47
2022-08-21T06:57:20.426Z,5.10
2022-08-21T06:59:46.850Z,3.35
2022-08-21T07:02:13.264Z,3.55
2022-08-21T07:04:39.686Z,2.85
2022-08-21T07:07:06.158Z,2.95
2022-08-21T07:09:32.634Z,3.17
2022-08-21T07:11:59.183Z,3.25
2022-08-21T07:14:25.716Z,5.32
2022-08-21T07:16:52.365Z,3.08
2022-08-21T07:19:19.561Z,2.50
2022-08-21T07:21:46.338Z,3.45
2022-08-21T07:24:13.233Z,4.60
2022-08-21T07:26:39.883Z,2.85
2022-08-21T07:29:06.309Z,3.80
2022-08-21T07:31:33.007Z,2.75
2022-08-21T07:33:59.785Z,3.50
2022-08-21T07:36:26.761Z,2.30
2022-08-21T07:38:53.312Z,3.78
2022-08-21T07:41:23.715Z,2.92
2022-08-21T07:43:52.676Z,5.05
2022-08-21T07:46:20.436Z,4.35
2022-08-21T07:48:47.113Z,3.17
2022-08-21T07:51:16.319Z,2.53
2022-08-21T07:53:43.406Z,3.60
2022-08-21T07:56:11.904Z,2.60
2022-08-21T07:58:38.866Z,2.95
2022-08-21T08:01:06.904Z,4.38
2022-08-21T08:03:34.023Z,3.15
2022-08-21T08:06:00.660Z,4.38
2022-08-21T08:08:27.311Z,4.05
2022-08-21T08:10:57.342Z,4.50
2022-08-21T08:13:24.113Z,4.47
2022-08-21T08:15:50.718Z,6.38
2022-08-21T08:18:17.202Z,3.80
2022-08-21T08:20:43.674Z,4.38
2022-08-21T08:23:14.843Z,7.20
2022-08-21T08:25:41.954Z,3.63
2022-08-21T08:28:16.983Z,2.80
2022-08-21T08:30:45.523Z,3.78
2022-08-21T08:33:11.953Z,3.13
2022-08-21T08:35:39.159Z,5.25
2022-08-21T08:38:06.003Z,2.75
2022-08-21T08:40:48.616Z,3.78
2022-08-21T08:43:15.554Z,7.95
2022-08-21T08:45:48.406Z,6.45
2022-08-21T08:48:31.542Z,5.20
2022-08-21T08:51:02.621Z,5.55
2022-08-21T08:53:33.027Z,2.70
2022-08-21T08:56:03.369Z,5.28
2022-08-21T08:58:38.231Z,6.07
2022-08-21T09:01:16.186Z,4.43
2022-08-21T09:03:43.237Z,3.53
2022-08-21T09:06:17.124Z,6.28
2022-08-21T09:09:01.797Z,3.10
2022-08-21T09:11:40.641Z,3.78
2022-08-21T09:14:21.827Z,3.30
2022-08-21T09:16:54.234Z,4.28
2022-08-21T09:19:48.498Z,4.97
2022-08-21T09:22:30.296Z,2.72
2022-08-21T09:25:14.530Z,3.50
2022-08-21T09:27:41.006Z,6.22
2022-08-21T09:30:08.931Z,3.45
2022-08-21T09:32:38.288Z,2.72
2022-08-21T09:35:04.740Z,3.67
2022-08-21T09:37:35.268Z,4.05
2022-08-21T09:40:14.939Z,2.92
2022-08-21T09:42:41.383Z,4.13
2022-08-21T09:45:19.185Z,2.70
2022-08-21T09:47:46.578Z,4.00
2022-08-21T09:50:25.423Z,3.35
2022-08-21T09:52:58.965Z,5.00
2022-08-21T09:55:57.406Z,4.00
2022-08-21T09:58:35.126Z,2.92
2022-08-21T10:01:04.294Z,6.47
2022-08-21T10:03:30.906Z,5.80
2022-08-21T10:06:09.547Z,2.83
2022-08-21T10:08:41.323Z,6.22
2022-08-21T10:11:14.670Z,4.35
2022-08-21T10:14:18.900Z,6.05
2022-08-21T10:16:57.156Z,3.17
2022-08-21T10:19:52.350Z,5.18
2022-08-21T10:22:42.092Z,2.67
2022-08-21T10:25:17.483Z,2.30
2022-08-21T10:27:56.021Z,4.00
2022-08-21T10:30:37.378Z,2.78
2022-08-21T10:33:17.051Z,2.78
2022-08-21T10:36:18.842Z,3.22
2022-08-21T10:42:11.242Z,3.17
2022-08-21T10:44:59.517Z,3.85
2022-08-21T10:47:31.274Z,2.88
2022-08-21T10:50:35.343Z,3.42
2022-08-21T10:53:26.520Z,1.73
2022-08-21T10:56:03.070Z,3.22
2022-08-21T10:58:51.926Z,2.15
2022-08-21T11:01:28.633Z,2.83
2022-08-21T11:04:23.506Z,2.65
2022-08-21T11:07:17.264Z,1.83
2022-08-21T11:09:48.724Z,1.58
2022-08-21T11:12:36.740Z,3.03
2022-08-21T11:15:29.159Z,2.10
2022-08-21T11:18:06.129Z,1.10
2022-08-21T11:20:44.352Z,2.30
2022-08-21T11:23:24.485Z,2.72
2022-08-21T11:25:56.119Z,2.47
2022-08-21T11:28:33.101Z,2.85
2022-08-21T11:31:32.470Z,2.90
2022-08-21T11:34:13.974Z,1.67
2022-08-21T11:37:09.195Z,1.73
2022-08-21T11:40:27.440Z,3.08
2022-08-21T11:43:02.880Z,2.97
2022-08-21T11:45:44.618Z,1.40
2022-08-21T11:48:46.592Z,2.38
2022-08-21T11:51:21.620Z,1.45
2022-08-21T11:54:00.188Z,1.60
2022-08-21T11:56:39.716Z,1.30
2022-08-21T11:59:12.074Z,1.02
2022-08-21T12:01:45.693Z,2.60
2022-08-21T12:04:29.900Z,1.15
2022-08-21T12:06:57.297Z,2.25
2022-08-21T12:09:26.696Z,1.23
2022-08-21T12:12:30.354Z,1.35
2022-08-21T12:15:20.841Z,2.42
2022-08-21T12:18:02.730Z,1.67
2022-08-21T12:20:57.882Z,2.75
2022-08-21T12:23:45.666Z,1.30
2022-08-21T12:26:21.412Z,2.20
2022-08-21T12:28:48.227Z,3.83
2022-08-21T12:31:20.127Z,1.50
2022-08-21T12:33:54.919Z,1.45
2022-08-21T12:36:26.746Z,2.55
2022-08-21T12:39:05.814Z,1.02
2022-08-21T12:41:42.903Z,1.52
2022-08-21T12:44:13.663Z,1.85
2022-08-21T12:46:46.474Z,2.13
2022-08-21T12:49:36.570Z,1.60
2022-08-21T12:52:12.498Z,2.72
2022-08-21T12:54:42.522Z,1.88
2022-08-21T12:57:18.712Z,1.35
2022-08-21T12:59:45.311Z,1.45
2022-08-21T13:02:19.759Z,1.83
2022-08-21T13:04:48.213Z,1.33
2022-08-21T13:07:21.549Z,0.88
2022-08-21T13:09:51.786Z,0.77
2022-08-21T13:12:20.716Z,1.58
2022-08-21T13:14:50.831Z,1.05
2022-08-21T13:17:25.777Z,1.52
2022-08-21T13:19:59.497Z,1.23
2022-08-21T13:22:33.801Z,1.42
2022-08-21T13:25:06.647Z,1.85
2022-08-21T13:27:35.056Z,2.55
2022-08-21T13:30:08.309Z,0.90
2022-08-21T13:32:38.823Z,0.82
2022-08-21T13:35:27.058Z,0.80
2022-08-21T13:37:55.542Z,1.25
2022-08-21T13:40:32.444Z,1.20
2022-08-21T13:43:01.200Z,0.93
2022-08-21T13:45:33.864Z,1.90
2022-08-21T13:48:06.696Z,1.85
2022-08-21T13:50:36.279Z,1.65
2022-08-21T13:53:06.839Z,1.83
2022-08-21T13:55:40.623Z,2.17
2022-08-21T13:58:08.136Z,1.88
2022-08-21T14:00:44.213Z,3.10
2022-08-21T14:03:12.107Z,1.35
2022-08-21T14:05:45.651Z,1.38
2022-08-21T14:08:21.286Z,1.15
2022-08-21T14:10:57.468Z,1.63
2022-08-21T14:13:38.657Z,1.75
2022-08-21T14:16:20.355Z,1.25
2022-08-21T14:18:51.850Z,1.30
2022-08-21T14:21:51.087Z,0.73
2022-08-21T14:24:23.857Z,1.25
2022-08-21T14:26:54.447Z,1.92
2022-08-21T14:29:25.040Z,1.27
2022-08-21T14:32:00.742Z,1.52
2022-08-21T14:34:32.867Z,3.17
2022-08-21T14:37:01.970Z,1.20
2022-08-21T14:39:28.392Z,1.17
2022-08-21T14:41:55.246Z,1.52
2022-08-21T14:44:21.776Z,2.05
2022-08-21T14:46:55.864Z,2.70
2022-08-21T14:49:24.186Z,0.90
2022-08-21T14:51:56.326Z,1.13
2022-08-21T14:54:30.566Z,1.67
2022-08-21T14:57:01.565Z,1.05
2022-08-21T14:59:28.428Z,1.85
2022-08-21T15:01:54.954Z,1.80
2022-08-21T15:04:21.374Z,1.50
2022-08-21T15:06:47.891Z,1.20
2022-08-21T15:09:14.477Z,1.17
2022-08-21T15:11:41.823Z,1.13
2022-08-21T15:14:13.190Z,1.15
2022-08-21T15:16:39.692Z,1.98
2022-08-21T15:19:06.122Z,1.02
2022-08-21T15:21:32.600Z,0.95
2022-08-21T15:23:59.030Z,1.00
2022-08-21T15:26:25.739Z,0.88
2022-08-21T15:28:52.515Z,1.20
2022-08-21T15:31:18.996Z,1.50
2022-08-21T15:33:45.540Z,1.17
2022-08-21T15:36:12.031Z,1.38
2022-08-21T15:38:38.541Z,0.95
2022-08-21T15:41:06.055Z,1.13
2022-08-21T15:43:44.452Z,2.17
2022-08-21T15:46:14.234Z,1.27
2022-08-21T15:48:41.112Z,1.20
2022-08-21T15:51:10.839Z,1.08
2022-08-21T15:53:39.947Z,1.83
2022-08-21T15:56:22.330Z,1.70
2022-08-21T15:58:50.250Z,1.77
2022-08-21T16:01:17.122Z,1.83
2022-08-21T16:03:48.708Z,1.42
2022-08-21T16:06:15.235Z,1.67
2022-08-21T16:08:41.744Z,0.90
2022-08-21T16:11:08.226Z,1.55
2022-08-21T16:13:43.684Z,3.63
2022-08-21T16:16:19.694Z,1.15
2022-08-21T16:18:47.154Z,1.15
2022-08-21T16:21:14.244Z,1.10
2022-08-21T16:23:42.323Z,1.48
2022-08-21T16:26:11.658Z,1.40
2022-08-21T16:28:46.385Z,1.60
2022-08-21T16:31:15.470Z,1.42
2022-08-21T16:33:53.510Z,1.85
2022-08-21T16:36:26.380Z,1.30
2022-08-21T16:38:54.852Z,1.95
2022-08-21T16:41:23.266Z,2.85
2022-08-21T16:43:51.762Z,1.13
2022-08-21T16:46:20.546Z,1.40
2022-08-21T16:48:47.396Z,1.65
2022-08-21T16:51:15.080Z,2.85
2022-08-21T16:53:42.820Z,2.78
2022-08-21T16:56:10.834Z,1.52
2022-08-21T16:58:42.086Z,3.10
2022-08-21T17:01:11.594Z,1.60
2022-08-21T17:03:42.203Z,1.77
2022-08-21T17:06:09.394Z,1.45
2022-08-21T17:08:35.798Z,2.78
2022-08-21T17:11:03.397Z,1.48
2022-08-21T17:13:30.688Z,1.58
2022-08-21T17:15:57.676Z,1.92
2022-08-21T17:18:25.131Z,1.50
2022-08-21T17:20:51.914Z,2.03
2022-08-21T17:23:19.700Z,1.45
2022-08-21T17:25:49.644Z,2.38
2022-08-21T17:28:23.966Z,2.60
2022-08-21T17:30:52.118Z,1.92
2022-08-21T17:33:19.640Z,1.38
2022-08-21T17:35:46.599Z,1.10
2022-08-21T17:38:14.773Z,2.65
2022-08-21T17:40:41.659Z,3.38
2022-08-21T17:43:12.920Z,2.22
2022-08-21T17:45:40.628Z,1.33
2022-08-21T17:48:07.371Z,1.80
2022-08-21T17:50:34.063Z,1.65
2022-08-21T17:53:00.744Z,1.70
2022-08-21T17:55:29.481Z,2.20
2022-08-21T17:57:57.161Z,2.17
2022-08-21T18:00:26.060Z,1.63
2022-08-21T18:03:01.798Z,2.70
2022-08-21T18:05:29.170Z,4.13
2022-08-21T18:07:55.855Z,2.03
2022-08-21T18:10:23.031Z,3.08
2022-08-21T18:12:49.954Z,2.75
2022-08-21T18:15:18.058Z,1.95
2022-08-21T18:17:48.097Z,2.20
2022-08-21T18:20:17.947Z,2.28
2022-08-21T18:22:44.973Z,3.00
2022-08-21T18:25:11.502Z,1.85
2022-08-21T18:27:38.949Z,4.70
2022-08-21T18:30:06.272Z,1.88
2022-08-21T18:32:32.811Z,2.25
2022-08-21T18:35:01.824Z,2.05
2022-08-21T18:37:29.188Z,4.57
2022-08-21T18:39:56.254Z,3.63
2022-08-21T18:42:28.444Z,4.32
2022-08-21T18:44:59.030Z,4.13
2022-08-21T18:47:32.615Z,5.43
2022-08-21T18:49:59.591Z,5.35
2022-08-21T18:52:28.465Z,6.55
2022-08-21T18:54:55.299Z,4.03
2022-08-21T18:57:23.293Z,2.72
2022-08-21T18:59:49.908Z,4.38
2022-08-21T19:02:16.387Z,4.43
2022-08-21T19:04:44.922Z,4.00
2022-08-21T19:07:13.609Z,5.05
2022-08-21T19:09:41.182Z,3.63
2022-08-21T19:12:14.036Z,6.70
2022-08-21T19:14:41.135Z,4.90
2022-08-21T19:17:08.663Z,4.78
2022-08-21T19:19:36.644Z,4.70
2022-08-21T19:22:06.158Z,2.30
2022-08-21T19:24:37.831Z,3.78
2022-08-21T19:27:04.502Z,5.85
2022-08-21T19:29:35.180Z,4.63
2022-08-21T19:32:04.542Z,4.75
2022-08-21T19:34:31.380Z,5.35
2022-08-21T19:36:59.216Z,3.72
2022-08-21T19:39:25.761Z,3.58
2022-08-21T19:41:57.107Z,5.68
2022-08-21T19:44:28.246Z,7.85
2022-08-21T19:47:00.085Z,4.68
2022-08-21T19:49:34.075Z,4.03
2022-08-21T19:52:01.693Z,3.38
2022-08-21T19:54:34.354Z,3.53
2022-08-21T19:57:06.701Z,3.45
2022-08-21T19:59:35.353Z,3.63
2022-08-21T20:02:02.131Z,2.78
2022-08-21T20:04:28.664Z,3.53
2022-08-21T20:06:55.338Z,2.50
2022-08-21T20:09:21.901Z,3.40
2022-08-21T20:11:51.807Z,6.22
2022-08-21T20:14:22.001Z,2.63
2022-08-21T20:16:52.572Z,4.78
2022-08-21T20:19:38.255Z,3.65
2022-08-21T20:22:05.588Z,2.92
2022-08-21T20:24:33.148Z,4.07
2022-08-21T20:27:02.313Z,4.28
2022-08-21T20:32:19.142Z,4.40
2022-08-21T20:34:52.116Z,2.92
2022-08-21T20:37:35.706Z,3.33
2022-08-21T20:40:09.899Z,4.35
2022-08-21T20:42:38.601Z,3.67
2022-08-21T20:45:08.404Z,3.15
2022-08-21T20:47:36.264Z,4.63
2022-08-21T20:50:13.034Z,3.17
2022-08-21T20:52:41.559Z,4.60
2022-08-21T20:55:14.353Z,5.00
2022-08-21T20:58:03.916Z,4.72
2022-08-21T21:00:34.994Z,5.55
2022-08-21T21:03:30.487Z,3.90
2022-08-21T21:06:04.646Z,3.13
2022-08-21T21:08:41.430Z,5.22
2022-08-21T21:11:19.619Z,4.00
2022-08-21T21:14:00.640Z,3.83
2022-08-21T21:16:36.524Z,4.78
2022-08-21T21:19:37.091Z,4.25
2022-08-21T21:22:13.977Z,3.70
2022-08-21T21:25:02.920Z,3.15
2022-08-21T21:27:37.715Z,3.78
2022-08-21T21:30:16.516Z,6.07
2022-08-21T21:32:47.843Z,4.55
2022-08-21T21:35:16.842Z,3.95
2022-08-21T21:38:18.371Z,3.70
2022-08-21T21:40:48.654Z,4.55
2022-08-21T21:43:52.715Z,4.15
2022-08-21T21:46:52.942Z,3.90
2022-08-21T21:49:34.213Z,4.57
2022-08-21T21:52:29.303Z,5.53
2022-08-21T21:55:03.149Z,3.45
2022-08-21T21:57:59.988Z,4.90
2022-08-21T22:00:32.847Z,3.97
2022-08-21T22:03:02.249Z,4.85
2022-08-21T22:05:57.479Z,4.85
2022-08-21T22:08:39.294Z,3.38
2022-08-21T22:11:29.444Z,5.10
2022-08-21T22:14:10.146Z,4.88
2022-08-21T22:16:37.918Z,3.70
2022-08-21T22:19:23.087Z,3.67
2022-08-21T22:22:09.147Z,4.65
2022-08-21T22:24:40.254Z,5.88
2022-08-21T22:27:12.095Z,3.72
2022-08-21T22:29:48.610Z,6.47
2022-08-21T22:32:42.794Z,6.10
2022-08-21T22:35:22.486Z,4.82
2022-08-21T22:37:53.836Z,5.68
2022-08-21T22:40:28.909Z,4.53
2022-08-21T22:43:07.462Z,5.00
2022-08-21T22:45:57.370Z,5.45
2022-08-21T22:48:28.415Z,4.03
2022-08-21T22:51:05.796Z,4.22
2022-08-21T22:53:39.585Z,5.30
2022-08-21T22:56:07.706Z,7.95
2022-08-21T22:58:40.860Z,6.07
2022-08-21T23:01:33.285Z,6.22
2022-08-21T23:04:19.223Z,7.63
2022-08-21T23:06:52.022Z,7.07
2022-08-21T23:09:21.077Z,6.07
2022-08-21T23:11:50.954Z,6.18
2022-08-21T23:14:18.393Z,5.43
2022-08-21T23:16:58.102Z,6.53
2022-08-21T23:19:49.295Z,4.80
2022-08-21T23:22:34.055Z,5.88
2022-08-21T23:25:24.902Z,4.80
2022-08-21T23:28:38.707Z,7.45
2022-08-21T23:31:32.756Z,4.47
2022-08-21T23:34:25.591Z,4.60
2022-08-21T23:37:49.754Z,4.95
2022-08-21T23:40:41.048Z,5.68
2022-08-21T23:43:43.556Z,6.22
2022-08-21T23:46:32.413Z,5.68
2022-08-21T23:49:07.672Z,5.57
2022-08-21T23:51:54.517Z,5.28
2022-08-21T23:54:27.272Z,4.88
2022-08-21T23:57:31.490Z,4.68
